createdAt,value
2023-01-23T00:00:04.723Z,103492.59
2023-01-23T00:02:33.988Z,103495.25
2023-01-23T00:05:01.824Z,103490.78
2023-01-23T00:07:29.758Z,103479.31
2023-01-23T00:09:57.663Z,103488.13
2023-01-23T00:12:25.687Z,103488.06
2023-01-23T00:14:53.541Z,103494.16
2023-01-23T00:17:21.428Z,103487.06
2023-01-23T00:19:50.681Z,103490.53
2023-01-23T00:22:18.625Z,103487.00
2023-01-23T00:24:46.551Z,103485.22
2023-01-23T00:27:14.414Z,103491.44
2023-01-23T00:29:42.272Z,103479.94
2023-01-23T00:32:10.141Z,103483.50
2023-01-23T00:34:38.763Z,103483.53
2023-01-23T00:37:08.091Z,103490.69
2023-01-23T00:39:36.206Z,103491.59
2023-01-23T00:42:04.111Z,103495.13
2023-01-23T00:44:32.052Z,103489.88
2023-01-23T00:46:59.881Z,103500.44
2023-01-23T00:49:27.747Z,103503.97
2023-01-23T00:51:56.482Z,103506.63
2023-01-23T00:54:26.346Z,103506.59
2023-01-23T00:56:54.228Z,103512.72
2023-01-23T00:59:22.123Z,103515.38
2023-01-23T01:01:50.069Z,103512.66
2023-01-23T01:04:17.981Z,103515.38
2023-01-23T01:06:45.878Z,103514.38
2023-01-23T01:09:13.762Z,103516.09
2023-01-23T01:11:42.984Z,103523.94
2023-01-23T01:14:10.831Z,103508.00
2023-01-23T01:16:40.903Z,103522.22
2023-01-23T01:19:08.787Z,103529.31
2023-01-23T01:21:37.011Z,103526.69
2023-01-23T01:24:05.053Z,103539.13
2023-01-23T01:26:32.945Z,103539.25
2023-01-23T01:29:02.234Z,103533.13
2023-01-23T01:31:30.178Z,103525.19
2023-01-23T01:33:58.079Z,103520.75
2023-01-23T01:36:27.083Z,103523.38
2023-01-23T01:38:54.943Z,103520.66
2023-01-23T01:41:22.823Z,103520.50
2023-01-23T01:43:51.202Z,103516.88
2023-01-23T01:46:22.124Z,103517.66
2023-01-23T01:48:53.605Z,103517.56
2023-01-23T01:51:26.070Z,103513.94
2023-01-23T01:53:58.169Z,103514.75
2023-01-23T01:56:26.035Z,103530.53
2023-01-23T01:58:53.900Z,103523.44
2023-01-23T02:01:23.185Z,103520.75
2023-01-23T02:03:51.247Z,103520.66
2023-01-23T02:06:19.362Z,103521.38
2023-01-23T02:08:50.305Z,103531.00
2023-01-23T02:11:18.608Z,103530.91
2023-01-23T02:13:46.486Z,103521.19
2023-01-23T02:16:15.486Z,103512.31
2023-01-23T02:18:47.256Z,103508.63
2023-01-23T02:21:15.873Z,103521.84
2023-01-23T02:23:49.002Z,103523.56
2023-01-23T02:26:19.588Z,103534.09
2023-01-23T02:28:48.295Z,103524.34
2023-01-23T02:31:16.299Z,103514.72
2023-01-23T02:33:46.617Z,103519.06
2023-01-23T02:36:14.560Z,103514.53
2023-01-23T02:38:46.612Z,103514.44
2023-01-23T02:41:14.467Z,103516.97
2023-01-23T02:43:43.776Z,103514.38
2023-01-23T02:46:12.523Z,103505.63
2023-01-23T02:48:41.085Z,103500.28
2023-01-23T02:51:09.013Z,103511.88
2023-01-23T02:53:36.932Z,103518.97
2023-01-23T02:56:05.009Z,103515.44
2023-01-23T02:58:50.194Z,103508.34
2023-01-23T03:01:19.542Z,103510.06
2023-01-23T03:03:47.434Z,103506.56
2023-01-23T03:06:15.361Z,103508.25
2023-01-23T03:08:47.774Z,103510.03
2023-01-23T03:11:16.409Z,103515.31
2023-01-23T03:13:45.005Z,103507.31
2023-01-23T03:16:13.094Z,103520.41
2023-01-23T03:18:53.564Z,103522.13
2023-01-23T03:21:22.313Z,103527.38
2023-01-23T03:23:50.344Z,103519.44
2023-01-23T03:26:18.209Z,103515.13
2023-01-23T03:29:03.637Z,103514.28
2023-01-23T03:31:31.558Z,103517.69
2023-01-23T03:34:00.996Z,103517.69
2023-01-23T03:36:28.989Z,103513.19
2023-01-23T03:39:14.500Z,103518.34
2023-01-23T03:41:45.733Z,103525.25
2023-01-23T03:44:13.900Z,103523.50
2023-01-23T03:46:41.793Z,103516.38
2023-01-23T03:49:11.063Z,103520.63
2023-01-23T03:51:38.962Z,103520.56
2023-01-23T03:54:06.938Z,103496.47
2023-01-23T03:56:34.835Z,103526.69
2023-01-23T03:59:02.691Z,103523.19
2023-01-23T04:01:30.581Z,103524.19
2023-01-23T04:03:58.453Z,103521.56
2023-01-23T04:06:28.652Z,103522.50
2023-01-23T04:08:57.229Z,103523.44
2023-01-23T04:11:26.438Z,103523.59
2023-01-23T04:13:54.404Z,103521.09
2023-01-23T04:16:22.812Z,103520.25
2023-01-23T04:18:50.753Z,103522.03
2023-01-23T04:21:18.718Z,103522.13
2023-01-23T04:23:47.934Z,103533.59
2023-01-23T04:26:15.841Z,103534.50
2023-01-23T04:28:43.740Z,103530.03
2023-01-23T04:31:11.703Z,103533.44
2023-01-23T04:33:39.647Z,103542.91
2023-01-23T04:36:08.499Z,103547.28
2023-01-23T04:38:36.343Z,103550.69
2023-01-23T04:41:05.888Z,103554.13
2023-01-23T04:43:33.784Z,103546.13
2023-01-23T04:46:01.723Z,103550.53
2023-01-23T04:48:29.587Z,103545.22
2023-01-23T04:50:57.511Z,103547.94
2023-01-23T04:53:25.481Z,103550.69
2023-01-23T04:55:53.367Z,103542.06
2023-01-23T04:58:22.656Z,103543.91
2023-01-23T05:00:50.568Z,103537.75
2023-01-23T05:03:18.506Z,103538.53
2023-01-23T05:05:46.983Z,103541.97
2023-01-23T05:08:14.935Z,103548.81
2023-01-23T05:10:42.795Z,103549.44
2023-01-23T05:13:10.760Z,103545.78
2023-01-23T05:15:40.046Z,103548.41
2023-01-23T05:18:07.923Z,103552.88
2023-01-23T05:20:35.818Z,103549.38
2023-01-23T05:23:03.719Z,103549.28
2023-01-23T05:25:31.573Z,103544.59
2023-01-23T05:27:59.947Z,103550.53
2023-01-23T05:30:27.857Z,103553.84
2023-01-23T05:32:57.136Z,103542.28
2023-01-23T05:35:25.035Z,103552.72
2023-01-23T05:37:52.910Z,103557.09
2023-01-23T05:40:21.965Z,103562.44
2023-01-23T05:42:50.050Z,103558.81
2023-01-23T05:45:18.099Z,103563.00
2023-01-23T05:47:46.063Z,103571.81
2023-01-23T05:50:17.121Z,103576.28
2023-01-23T05:52:45.102Z,103571.91
2023-01-23T05:55:13.125Z,103567.56
2023-01-23T05:57:40.981Z,103566.78
2023-01-23T06:00:09.945Z,103575.66
2023-01-23T06:02:37.874Z,103568.63
2023-01-23T06:05:06.520Z,103573.91
2023-01-23T06:07:35.782Z,103570.50
2023-01-23T06:10:03.626Z,103564.38
2023-01-23T06:12:31.508Z,103566.16
2023-01-23T06:14:59.343Z,103565.31
2023-01-23T06:17:27.262Z,103572.41
2023-01-23T06:19:55.149Z,103572.44
2023-01-23T06:22:23.322Z,103574.06
2023-01-23T06:24:53.508Z,103567.03
2023-01-23T06:27:21.405Z,103578.38
2023-01-23T06:29:49.419Z,103574.84
2023-01-23T06:32:17.340Z,103573.91
2023-01-23T06:34:45.224Z,103573.00
2023-01-23T06:37:13.069Z,103572.09
2023-01-23T06:39:41.140Z,103571.19
2023-01-23T06:42:10.862Z,103572.16
2023-01-23T06:44:38.773Z,103576.47
2023-01-23T06:47:06.692Z,103572.06
2023-01-23T06:49:34.808Z,103575.53
2023-01-23T06:52:02.688Z,103577.34
2023-01-23T06:54:30.556Z,103583.56
2023-01-23T06:56:58.445Z,103583.63
2023-01-23T06:59:27.716Z,103582.75
2023-01-23T07:01:55.687Z,103590.72
2023-01-23T07:04:23.669Z,103593.38
2023-01-23T07:06:51.624Z,103588.16
2023-01-23T07:09:19.517Z,103601.53
2023-01-23T07:11:47.472Z,103601.56
2023-01-23T07:14:15.325Z,103606.84
2023-01-23T07:16:44.562Z,103614.84
2023-01-23T07:19:12.634Z,103619.22
2023-01-23T07:21:40.553Z,103616.69
2023-01-23T07:24:08.596Z,103619.47
2023-01-23T07:26:36.509Z,103620.47
2023-01-23T07:29:04.980Z,103621.41
2023-01-23T07:31:32.878Z,103617.94
2023-01-23T07:34:02.777Z,103622.41
2023-01-23T07:36:30.748Z,103612.91
2023-01-23T07:38:59.405Z,103626.16
2023-01-23T07:41:27.333Z,103626.25
2023-01-23T07:43:55.255Z,103622.81
2023-01-23T07:46:23.817Z,103624.63
2023-01-23T07:48:51.792Z,103626.47
2023-01-23T07:51:21.988Z,103625.63
2023-01-23T07:53:49.892Z,103635.28
2023-01-23T07:56:17.743Z,103633.59
2023-01-23T07:58:45.599Z,103634.50
2023-01-23T08:01:13.563Z,103639.84
2023-01-23T08:03:41.525Z,103647.88
2023-01-23T08:06:09.609Z,103652.31
2023-01-23T08:08:38.986Z,103648.94
2023-01-23T08:11:07.256Z,103654.31
2023-01-23T08:13:35.123Z,103658.78
2023-01-23T08:16:03.053Z,103659.75
2023-01-23T08:18:31.175Z,103659.81
2023-01-23T08:20:59.681Z,103661.53
2023-01-23T08:23:27.770Z,103660.66
2023-01-23T08:25:57.443Z,103661.56
2023-01-23T08:28:25.512Z,103658.91
2023-01-23T08:30:53.498Z,103659.00
2023-01-23T08:33:21.802Z,103666.03
2023-01-23T08:35:50.669Z,103662.50
2023-01-23T08:38:19.341Z,103659.00
2023-01-23T08:40:49.781Z,103661.66
2023-01-23T08:43:19.632Z,103659.13
2023-01-23T08:45:50.108Z,103660.97
2023-01-23T08:48:18.115Z,103678.66
2023-01-23T08:50:46.162Z,103671.75
2023-01-23T08:53:14.216Z,103678.03
2023-01-23T08:55:42.382Z,103673.66
2023-01-23T08:58:13.190Z,103672.88
2023-01-23T09:00:42.892Z,103687.91
2023-01-23T09:03:11.548Z,103689.81
2023-01-23T09:05:39.621Z,103689.03
2023-01-23T09:08:07.530Z,103678.53
2023-01-23T09:10:36.408Z,103677.69
2023-01-23T09:13:04.352Z,103677.78
2023-01-23T09:15:32.465Z,103683.25
2023-01-23T09:18:01.730Z,103680.78
2023-01-23T09:20:29.691Z,103671.22
2023-01-23T09:22:57.608Z,103667.94
2023-01-23T09:25:25.463Z,103668.09
2023-01-23T09:27:53.342Z,103681.50
2023-01-23T09:30:21.762Z,103679.09
2023-01-23T09:32:49.892Z,103679.41
2023-01-23T09:35:19.178Z,103684.09
2023-01-23T09:38:02.339Z,103685.19
2023-01-23T09:40:31.652Z,103693.34
2023-01-23T09:43:01.579Z,103688.25
2023-01-23T09:45:29.462Z,103691.09
2023-01-23T09:48:00.297Z,103704.50
2023-01-23T09:50:30.775Z,103710.91
2023-01-23T09:53:00.916Z,103711.97
2023-01-23T09:55:34.799Z,103711.25
2023-01-23T09:58:03.518Z,103711.41
2023-01-23T10:00:32.138Z,103716.06
2023-01-23T10:03:01.260Z,103702.94
2023-01-23T10:05:32.999Z,103694.25
2023-01-23T10:08:06.626Z,103692.66
2023-01-23T10:10:44.336Z,103699.81
2023-01-23T10:13:16.510Z,103705.22
2023-01-23T10:16:01.442Z,103707.94
2023-01-23T10:18:31.736Z,103704.34
2023-01-23T10:21:07.039Z,103709.63
2023-01-23T10:23:43.071Z,103717.59
2023-01-23T10:26:14.202Z,103716.66
2023-01-23T10:28:42.134Z,103721.91
2023-01-23T10:31:12.464Z,103722.75
2023-01-23T10:33:43.466Z,103715.69
2023-01-23T10:36:23.621Z,103723.63
2023-01-23T10:38:57.943Z,103729.91
2023-01-23T10:41:25.947Z,103732.56
2023-01-23T10:43:54.919Z,103725.59
2023-01-23T10:46:23.997Z,103715.91
2023-01-23T10:48:52.240Z,103727.50
2023-01-23T10:51:35.451Z,103713.44
2023-01-23T10:54:08.481Z,103715.44
2023-01-23T10:56:37.618Z,103712.16
2023-01-23T10:59:06.528Z,103726.47
2023-01-23T11:01:35.248Z,103726.97
2023-01-23T11:04:11.327Z,103727.09
2023-01-23T11:06:40.611Z,103724.78
2023-01-23T11:09:19.852Z,103736.56
2023-01-23T11:12:05.635Z,103729.63
2023-01-23T11:14:33.608Z,103727.94
2023-01-23T11:17:06.897Z,103724.41
2023-01-23T11:19:34.812Z,103727.94
2023-01-23T11:22:04.144Z,103732.34
2023-01-23T11:24:40.170Z,103723.41
2023-01-23T11:27:18.536Z,103705.59
2023-01-23T11:29:55.055Z,103712.63
2023-01-23T11:32:23.097Z,103717.06
2023-01-23T11:34:53.033Z,103701.88
2023-01-23T11:37:23.777Z,103712.50
2023-01-23T11:39:54.057Z,103715.13
2023-01-23T11:42:21.970Z,103716.03
2023-01-23T11:44:51.232Z,103722.25
2023-01-23T11:47:32.858Z,103724.03
2023-01-23T11:50:30.144Z,103722.19
2023-01-23T11:53:03.505Z,103732.75
2023-01-23T11:55:53.361Z,103732.69
2023-01-23T11:58:49.040Z,103723.72
2023-01-23T12:01:20.201Z,103716.78
2023-01-23T12:04:29.582Z,103729.50
2023-01-23T12:07:21.669Z,103718.69
2023-01-23T12:09:56.317Z,103702.47
2023-01-23T12:12:30.490Z,103703.13
2023-01-23T12:15:07.358Z,103693.03
2023-01-23T12:17:40.397Z,103685.63
2023-01-23T12:20:32.461Z,103682.53
2023-01-23T12:23:16.745Z,103676.09
2023-01-23T12:25:48.072Z,103672.66
2023-01-23T12:28:25.055Z,103681.69
2023-01-23T12:31:22.176Z,103673.66
2023-01-23T12:33:57.501Z,103671.38
2023-01-23T12:36:59.515Z,103666.44
2023-01-23T12:39:53.403Z,103669.56
2023-01-23T12:42:23.319Z,103652.88
2023-01-23T12:44:57.477Z,103653.00
2023-01-23T12:47:26.434Z,103655.75
2023-01-23T12:49:56.630Z,103641.63
2023-01-23T12:52:25.789Z,103635.47
2023-01-23T12:54:57.039Z,103633.72
2023-01-23T13:00:26.728Z,103640.00
2023-01-23T13:02:58.334Z,103631.13
2023-01-23T13:05:28.692Z,103624.91
2023-01-23T13:07:58.080Z,103642.69
2023-01-23T13:10:51.296Z,103640.91
2023-01-23T13:13:19.315Z,103641.81
2023-01-23T13:16:02.695Z,103636.50
2023-01-23T13:18:50.599Z,103639.16
2023-01-23T13:21:35.763Z,103631.19
2023-01-23T13:24:38.392Z,103632.97
2023-01-23T13:27:36.814Z,103625.88
2023-01-23T13:30:06.672Z,103636.53
2023-01-23T13:32:35.997Z,103633.88
2023-01-23T13:35:03.921Z,103632.94
2023-01-23T13:37:51.437Z,103640.91
2023-01-23T13:40:21.614Z,103640.94
2023-01-23T13:42:49.512Z,103633.84
2023-01-23T13:45:27.056Z,103636.50
2023-01-23T14:22:21.910Z,103653.38
2023-01-23T14:24:52.194Z,103649.81
2023-01-23T14:27:21.970Z,103646.28
2023-01-23T14:29:57.341Z,103652.50
2023-01-23T14:32:25.358Z,103658.69
2023-01-23T14:34:53.282Z,103664.00
2023-01-23T14:37:21.158Z,103672.00
2023-01-23T14:39:53.056Z,103680.00
2023-01-23T14:42:24.522Z,103675.56
2023-01-23T14:44:52.401Z,103672.03
2023-01-23T14:47:24.567Z,103663.16
2023-01-23T14:49:52.932Z,103675.56
2023-01-23T14:52:23.311Z,103685.34
2023-01-23T14:54:54.175Z,103682.69
2023-01-23T14:57:24.912Z,103677.34
2023-01-23T14:59:54.323Z,103678.19
2023-01-23T15:02:27.206Z,103676.44
2023-01-23T15:05:11.777Z,103687.09
2023-01-23T15:07:44.073Z,103680.88
2023-01-23T15:10:16.116Z,103687.94
2023-01-23T15:12:51.479Z,103673.75
2023-01-23T15:15:22.991Z,103677.31
2023-01-23T15:17:51.231Z,103677.28
2023-01-23T15:20:35.510Z,103671.09
2023-01-23T15:23:28.443Z,103675.53
2023-01-23T15:26:13.636Z,103668.41
2023-01-23T15:28:49.316Z,103659.56
2023-01-23T15:31:27.952Z,103662.22
2023-01-23T15:33:55.932Z,103666.66
2023-01-23T15:36:27.975Z,103664.00
2023-01-23T15:38:56.201Z,103665.75
2023-01-23T15:41:39.403Z,103671.09
2023-01-23T15:44:14.094Z,103665.75
2023-01-23T15:46:42.143Z,103656.03
2023-01-23T15:49:23.637Z,103656.00
2023-01-23T15:51:53.127Z,103662.19
2023-01-23T15:54:26.032Z,103665.78
2023-01-23T15:57:06.639Z,103663.97
2023-01-23T15:59:36.709Z,103667.53
2023-01-23T16:02:04.710Z,103667.53
2023-01-23T16:04:32.614Z,103663.97
2023-01-23T16:07:01.258Z,103664.88
2023-01-23T16:09:30.847Z,103662.19
2023-01-23T16:11:58.902Z,103668.38
2023-01-23T16:14:26.827Z,103681.66
2023-01-23T16:16:58.234Z,103682.53
2023-01-23T16:19:32.534Z,103672.75
2023-01-23T16:22:05.306Z,103679.78
2023-01-23T16:24:35.121Z,103690.41
2023-01-23T16:27:03.139Z,103694.78
2023-01-23T16:29:31.742Z,103697.38
2023-01-23T16:32:01.925Z,103703.50
2023-01-23T16:34:29.933Z,103706.03
2023-01-23T16:36:58.390Z,103701.53
2023-01-23T16:39:27.839Z,103680.06
2023-01-23T16:41:55.959Z,103706.66
2023-01-23T16:44:24.851Z,103707.41
2023-01-23T16:46:53.322Z,103718.81
2023-01-23T16:49:22.589Z,103710.78
2023-01-23T16:51:55.687Z,103710.69
2023-01-23T16:54:23.595Z,103685.66
2023-01-23T16:56:52.812Z,103716.69
2023-01-23T16:59:21.987Z,103716.59
2023-01-23T17:01:51.025Z,103720.03
2023-01-23T17:04:20.275Z,103722.56
2023-01-23T17:06:49.862Z,103726.00
2023-01-23T17:09:17.888Z,103727.69
2023-01-23T17:11:46.939Z,103726.75
2023-01-23T17:14:16.554Z,103724.03
2023-01-23T17:16:44.533Z,103719.47
2023-01-23T17:19:27.866Z,103718.50
2023-01-23T17:21:57.288Z,103724.56
2023-01-23T17:24:25.127Z,103729.78
2023-01-23T17:26:53.003Z,103724.38
2023-01-23T17:29:21.021Z,103732.22
2023-01-23T17:31:49.121Z,103735.66
2023-01-23T17:34:21.125Z,103743.53
2023-01-23T17:36:49.016Z,103745.19
2023-01-23T17:39:19.465Z,103752.22
2023-01-23T17:41:48.419Z,103746.84
2023-01-23T17:44:16.316Z,103757.34
2023-01-23T17:46:44.494Z,103760.81
2023-01-23T17:49:25.509Z,103763.38
2023-01-23T17:51:53.463Z,103765.91
2023-01-23T17:54:22.776Z,103775.59
2023-01-23T17:56:50.698Z,103780.84
2023-01-23T17:59:18.654Z,103779.94
2023-01-23T18:01:47.690Z,103779.94
2023-01-23T18:04:16.758Z,103779.94
2023-01-23T18:06:44.700Z,103779.88
2023-01-23T18:09:12.579Z,103772.78
2023-01-23T18:11:43.392Z,103780.69
2023-01-23T18:14:26.634Z,103778.03
2023-01-23T18:16:55.528Z,103757.44
2023-01-23T18:19:24.487Z,103790.34
2023-01-23T18:21:53.849Z,103800.00
2023-01-23T18:24:26.419Z,103790.28
2023-01-23T18:27:00.462Z,103792.84
2023-01-23T18:29:35.300Z,103797.13
2023-01-23T18:32:15.136Z,103784.53
2023-01-23T18:34:44.887Z,103785.19
2023-01-23T18:37:17.328Z,103794.91
2023-01-23T18:40:05.675Z,103800.94
2023-01-23T18:42:38.392Z,103785.88
2023-01-23T18:45:10.396Z,103786.81
2023-01-23T18:47:38.876Z,103785.00
2023-01-23T18:50:08.409Z,103772.66
2023-01-23T18:52:45.797Z,103783.22
2023-01-23T18:55:18.725Z,103785.69
2023-01-23T18:58:09.880Z,103779.31
2023-01-23T19:00:40.866Z,103773.84
2023-01-23T19:03:13.367Z,103784.34
2023-01-23T19:05:41.423Z,103796.56
2023-01-23T19:08:15.859Z,103782.38
2023-01-23T19:10:48.580Z,103780.47
2023-01-23T19:13:21.396Z,103783.16
2023-01-23T19:15:56.820Z,103798.16
2023-01-23T19:18:48.920Z,103767.84
2023-01-23T19:21:20.615Z,103791.97
2023-01-23T19:23:54.454Z,103799.97
2023-01-23T19:26:22.881Z,103811.38
2023-01-23T19:28:52.763Z,103810.47
2023-01-23T19:31:22.530Z,103805.97
2023-01-23T19:33:50.875Z,103813.69
2023-01-23T19:36:18.877Z,103809.09
2023-01-23T19:38:46.909Z,103816.00
2023-01-23T19:41:19.685Z,103821.19
2023-01-23T19:43:49.267Z,103822.78
2023-01-23T19:46:18.767Z,103827.13
2023-01-23T19:48:47.035Z,103825.25
2023-01-23T19:51:16.540Z,103820.78
2023-01-23T19:53:44.490Z,103818.16
2023-01-23T19:56:12.795Z,103824.38
2023-01-23T19:58:41.450Z,103822.53
2023-01-23T20:01:18.925Z,103825.09
2023-01-23T20:03:46.881Z,103830.19
2023-01-23T20:06:14.796Z,103837.09
2023-01-23T20:08:42.613Z,103843.16
2023-01-23T20:11:11.212Z,103842.13
2023-01-23T20:13:40.858Z,103849.09
2023-01-23T20:16:10.185Z,103852.47
2023-01-23T20:18:39.487Z,103852.44
2023-01-23T20:21:07.401Z,103849.66
2023-01-23T20:23:35.289Z,103850.56
2023-01-23T20:26:03.776Z,103847.03
2023-01-23T20:28:31.678Z,103848.84
2023-01-23T20:31:04.732Z,103854.19
2023-01-23T20:33:32.645Z,103856.03
2023-01-23T20:36:01.939Z,103855.00
2023-01-23T20:38:29.873Z,103852.19
2023-01-23T20:41:03.555Z,103861.72
2023-01-23T20:43:31.453Z,103860.78
2023-01-23T20:45:59.407Z,103855.38
2023-01-23T20:48:27.291Z,103865.75
2023-01-23T20:50:56.066Z,103855.88
2023-01-23T20:53:30.155Z,103843.50
2023-01-23T20:55:58.629Z,103854.97
2023-01-23T20:58:44.049Z,103863.66
2023-01-23T21:01:12.155Z,103855.63
2023-01-23T21:03:40.619Z,103859.94
2023-01-23T21:06:08.706Z,103851.09
2023-01-23T21:08:37.944Z,103859.94
2023-01-23T21:11:07.138Z,103860.78
2023-01-23T21:13:35.327Z,103857.22
2023-01-23T21:16:04.594Z,103860.78
2023-01-23T21:18:32.637Z,103865.22
2023-01-23T21:21:04.185Z,103857.22
2023-01-23T21:23:32.083Z,103853.53
2023-01-23T21:26:01.595Z,103855.09
2023-01-23T21:28:30.052Z,103854.00
2023-01-23T21:30:58.056Z,103849.38
2023-01-23T21:33:26.212Z,103858.03
2023-01-23T21:35:54.860Z,103864.78
2023-01-23T21:38:22.954Z,103864.63
2023-01-23T21:40:51.778Z,103857.53
2023-01-23T21:43:21.101Z,103853.13
2023-01-23T21:45:49.131Z,103860.13
2023-01-23T21:48:16.979Z,103853.03
2023-01-23T21:50:44.828Z,103862.72
2023-01-23T21:53:12.752Z,103867.94
2023-01-23T21:55:40.615Z,103863.53
2023-01-23T21:58:08.505Z,103865.38
2023-01-23T22:00:55.031Z,103869.72
2023-01-23T22:03:23.317Z,103878.53
2023-01-23T22:05:51.239Z,103879.41
2023-01-23T22:08:19.337Z,103880.31
2023-01-23T22:10:47.220Z,103879.50
2023-01-23T22:13:15.140Z,103876.78
2023-01-23T22:15:44.466Z,103888.94
2023-01-23T22:18:12.421Z,103891.41
2023-01-23T22:20:40.278Z,103890.56
2023-01-23T22:23:08.166Z,103892.41
2023-01-23T22:25:36.080Z,103893.34
2023-01-23T22:28:03.982Z,103891.63
2023-01-23T22:30:31.877Z,103891.63
2023-01-23T22:33:01.223Z,103891.63
2023-01-23T22:35:29.116Z,103888.00
2023-01-23T22:37:57.010Z,103895.81
2023-01-23T22:40:24.929Z,103898.53
2023-01-23T22:42:52.819Z,103895.94
2023-01-23T22:45:21.020Z,103894.34
2023-01-23T22:47:49.005Z,103891.78
2023-01-23T22:50:18.766Z,103889.09
2023-01-23T22:52:46.769Z,103887.28
2023-01-23T22:55:15.562Z,103889.78
2023-01-23T22:57:43.591Z,103889.69
2023-01-23T23:00:13.404Z,103897.47
2023-01-23T23:02:41.296Z,103895.50
2023-01-23T23:05:09.605Z,103889.13
2023-01-23T23:07:38.872Z,103890.94
2023-01-23T23:10:07.388Z,103901.47
2023-01-23T23:12:35.335Z,103899.56
2023-01-23T23:15:03.878Z,103895.00
2023-01-23T23:17:31.878Z,103889.56
2023-01-23T23:19:59.848Z,103895.44
2023-01-23T23:22:27.741Z,103909.28
2023-01-23T23:24:56.982Z,103901.28
2023-01-23T23:27:24.920Z,103909.97
2023-01-23T23:29:52.783Z,103910.78
2023-01-23T23:32:20.930Z,103913.34
2023-01-23T23:34:48.924Z,103904.47
2023-01-23T23:37:16.783Z,103902.72
2023-01-23T23:39:44.735Z,103916.03
2023-01-23T23:42:13.976Z,103916.00
2023-01-23T23:44:42.458Z,103909.09
2023-01-23T23:47:10.279Z,103911.16
2023-01-23T23:49:38.183Z,103904.19
2023-01-23T23:52:06.104Z,103906.22
2023-01-23T23:54:33.969Z,103901.84
2023-01-23T23:57:01.865Z,103902.59
2023-01-23T23:59:31.238Z,103900.75
